Rolls, Texas
Current Conditions -  °F | °C
As of 6:58 AM on Sunday 23 Nov 2014 (Local Time) from KDYS Reporting Station
Clear Clear  
Wind Chill: 49°   Ceiling: Unl
Heat Index: 49°   Visibility: 10mi
Dew Point: 40°   Wind: 3mph
Humidity: 69%   Direction: 180°S
Pressure: 29.58"   Gusts: NA
Location:  33.1968°N, 99.9025°W
Report Text: KDYS 231258Z AUTO 18003KT 10SM CLR 10/04 A2958 RMK AO2 SLP003 T00970043 $
Loading
Personal Weather Stations






























Interactive Weather Map New forecast layout! Learn more

10-Day Weather Forecast

Advertisements
Track Severe Weather on mobile